sensor_id;sensor_type;location;lat;lon;timestamp;pressure;altitude;pressure_sealevel;temperature;humidity
79415;BME280;68864;44.972;19.612;2023-08-30T00:01:11;99536.63;;;21.72;67.44
79415;BME280;68864;44.972;19.612;2023-08-30T00:03:38;99530.97;;;21.72;67.84
79415;BME280;68864;44.972;19.612;2023-08-30T00:06:06;99531.41;;;21.71;67.79
79415;BME280;68864;44.972;19.612;2023-08-30T00:08:33;99541.09;;;21.52;69.23
79415;BME280;68864;44.972;19.612;2023-08-30T00:11:00;99547.44;;;21.34;70.13
79415;BME280;68864;44.972;19.612;2023-08-30T00:13:30;99542.78;;;21.06;72.29
79415;BME280;68864;44.972;19.612;2023-08-30T00:15:57;99535.88;;;21.07;71.33
79415;BME280;68864;44.972;19.612;2023-08-30T00:18:24;99526.38;;;21.00;71.37
79415;BME280;68864;44.972;19.612;2023-08-30T00:20:51;99539.59;;;21.03;71.81
79415;BME280;68864;44.972;19.612;2023-08-30T00:23:18;99534.84;;;20.79;73.02
79415;BME280;68864;44.972;19.612;2023-08-30T00:25:45;99550.69;;;20.76;73.20
79415;BME280;68864;44.972;19.612;2023-08-30T00:28:12;99552.38;;;20.52;74.33
79415;BME280;68864;44.972;19.612;2023-08-30T00:30:40;99550.34;;;20.40;75.30
79415;BME280;68864;44.972;19.612;2023-08-30T00:33:07;99540.56;;;20.28;75.62
79415;BME280;68864;44.972;19.612;2023-08-30T00:35:33;99540.06;;;20.33;75.20
79415;BME280;68864;44.972;19.612;2023-08-30T00:38:00;99538.09;;;20.43;74.56
79415;BME280;68864;44.972;19.612;2023-08-30T00:40:28;99538.25;;;20.39;75.44
79415;BME280;68864;44.972;19.612;2023-08-30T00:42:56;99537.66;;;20.44;75.61
79415;BME280;68864;44.972;19.612;2023-08-30T00:45:23;99547.03;;;20.41;75.55
79415;BME280;68864;44.972;19.612;2023-08-30T00:47:53;99536.84;;;20.31;77.25
79415;BME280;68864;44.972;19.612;2023-08-30T00:50:20;99537.75;;;20.28;77.54
79415;BME280;68864;44.972;19.612;2023-08-30T00:52:46;99536.19;;;20.02;79.10
79415;BME280;68864;44.972;19.612;2023-08-30T00:55:13;99534.38;;;20.08;77.82
79415;BME280;68864;44.972;19.612;2023-08-30T00:57:40;99534.84;;;20.06;78.40
79415;BME280;68864;44.972;19.612;2023-08-30T01:00:09;99541.31;;;20.07;79.09
79415;BME280;68864;44.972;19.612;2023-08-30T01:02:37;99532.13;;;20.03;78.56
79415;BME280;68864;44.972;19.612;2023-08-30T01:05:06;99536.88;;;20.06;78.95
79415;BME280;68864;44.972;19.612;2023-08-30T01:07:34;99535.66;;;20.07;78.15
79415;BME280;68864;44.972;19.612;2023-08-30T01:10:00;99527.94;;;20.07;78.88
79415;BME280;68864;44.972;19.612;2023-08-30T01:12:33;99528.47;;;20.15;78.56
79415;BME280;68864;44.972;19.612;2023-08-30T01:15:08;99532.31;;;20.21;78.49
79415;BME280;68864;44.972;19.612;2023-08-30T01:17:36;99525.09;;;20.20;78.97
79415;BME280;68864;44.972;19.612;2023-08-30T01:20:08;99525.00;;;20.11;79.32
79415;BME280;68864;44.972;19.612;2023-08-30T01:22:45;99537.09;;;20.11;79.32
79415;BME280;68864;44.972;19.612;2023-08-30T01:25:24;99542.97;;;20.17;79.03
79415;BME280;68864;44.972;19.612;2023-08-30T01:27:56;99544.19;;;20.29;78.48
79415;BME280;68864;44.972;19.612;2023-08-30T01:30:24;99542.31;;;20.38;77.62
79415;BME280;68864;44.972;19.612;2023-08-30T01:32:52;99545.25;;;20.47;77.53
79415;BME280;68864;44.972;19.612;2023-08-30T01:35:22;99545.56;;;20.49;77.21
79415;BME280;68864;44.972;19.612;2023-08-30T01:37:50;99542.63;;;20.53;77.31
79415;BME280;68864;44.972;19.612;2023-08-30T01:40:18;99545.22;;;20.60;77.01
79415;BME280;68864;44.972;19.612;2023-08-30T01:42:47;99547.00;;;20.67;76.62
79415;BME280;68864;44.972;19.612;2023-08-30T01:45:17;99548.00;;;20.73;75.58
79415;BME280;68864;44.972;19.612;2023-08-30T01:47:44;99548.22;;;20.78;75.20
79415;BME280;68864;44.972;19.612;2023-08-30T01:50:12;99540.50;;;20.79;75.22
79415;BME280;68864;44.972;19.612;2023-08-30T01:52:40;99535.28;;;20.77;75.20
79415;BME280;68864;44.972;19.612;2023-08-30T01:55:08;99540.06;;;20.80;74.99
79415;BME280;68864;44.972;19.612;2023-08-30T01:57:35;99537.69;;;20.79;74.88
79415;BME280;68864;44.972;19.612;2023-08-30T02:00:02;99534.84;;;20.79;74.89
79415;BME280;68864;44.972;19.612;2023-08-30T02:02:32;99535.03;;;20.84;74.90
79415;BME280;68864;44.972;19.612;2023-08-30T02:04:59;99530.50;;;20.87;74.71
79415;BME280;68864;44.972;19.612;2023-08-30T02:07:29;99529.78;;;20.95;73.78
79415;BME280;68864;44.972;19.612;2023-08-30T02:10:01;99526.69;;;21.02;73.58
79415;BME280;68864;44.972;19.612;2023-08-30T02:12:37;99530.66;;;21.05;73.29
79415;BME280;68864;44.972;19.612;2023-08-30T02:15:07;99531.31;;;21.09;73.16
79415;BME280;68864;44.972;19.612;2023-08-30T02:17:37;99535.38;;;21.08;72.92
79415;BME280;68864;44.972;19.612;2023-08-30T02:20:05;99537.44;;;21.08;72.77
79415;BME280;68864;44.972;19.612;2023-08-30T02:22:32;99540.75;;;21.06;73.09
79415;BME280;68864;44.972;19.612;2023-08-30T02:24:59;99531.44;;;21.06;73.67
79415;BME280;68864;44.972;19.612;2023-08-30T02:27:30;99537.56;;;21.04;73.22
79415;BME280;68864;44.972;19.612;2023-08-30T02:29:57;99546.41;;;21.06;73.08
79415;BME280;68864;44.972;19.612;2023-08-30T02:32:23;99546.41;;;21.06;72.67
79415;BME280;68864;44.972;19.612;2023-08-30T02:34:52;99541.66;;;21.03;72.83
79415;BME280;68864;44.972;19.612;2023-08-30T02:37:19;99548.03;;;20.94;73.00
79415;BME280;68864;44.972;19.612;2023-08-30T02:39:46;99553.84;;;20.91;73.31
79415;BME280;68864;44.972;19.612;2023-08-30T02:42:13;99556.53;;;20.94;73.45
79415;BME280;68864;44.972;19.612;2023-08-30T02:44:39;99562.97;;;20.95;73.33
79415;BME280;68864;44.972;19.612;2023-08-30T02:47:06;99562.31;;;20.91;73.67
79415;BME280;68864;44.972;19.612;2023-08-30T02:49:33;99564.25;;;20.94;72.91
79415;BME280;68864;44.972;19.612;2023-08-30T02:52:01;99548.56;;;20.68;74.79
79415;BME280;68864;44.972;19.612;2023-08-30T02:54:27;99549.69;;;20.70;74.55
79415;BME280;68864;44.972;19.612;2023-08-30T02:56:54;99539.63;;;20.69;74.22
79415;BME280;68864;44.972;19.612;2023-08-30T02:59:21;99541.22;;;20.70;74.37
79415;BME280;68864;44.972;19.612;2023-08-30T03:01:48;99537.25;;;20.68;74.21
79415;BME280;68864;44.972;19.612;2023-08-30T03:04:14;99526.06;;;20.64;74.22
79415;BME280;68864;44.972;19.612;2023-08-30T03:06:41;99529.47;;;20.59;74.59
79415;BME280;68864;44.972;19.612;2023-08-30T03:09:09;99527.44;;;20.59;74.30
79415;BME280;68864;44.972;19.612;2023-08-30T03:11:37;99529.03;;;20.60;74.22
79415;BME280;68864;44.972;19.612;2023-08-30T03:14:04;99532.31;;;20.59;74.41
79415;BME280;68864;44.972;19.612;2023-08-30T03:16:30;99525.94;;;20.55;74.39
79415;BME280;68864;44.972;19.612;2023-08-30T03:18:57;99531.63;;;20.55;74.70
79415;BME280;68864;44.972;19.612;2023-08-30T03:21:24;99533.16;;;20.34;75.43
79415;BME280;68864;44.972;19.612;2023-08-30T03:23:51;99540.81;;;20.46;74.74
79415;BME280;68864;44.972;19.612;2023-08-30T03:26:19;99542.88;;;20.46;74.77
79415;BME280;68864;44.972;19.612;2023-08-30T03:28:45;99543.53;;;20.50;74.51
79415;BME280;68864;44.972;19.612;2023-08-30T03:31:13;99537.75;;;20.53;74.42
79415;BME280;68864;44.972;19.612;2023-08-30T03:33:40;99542.50;;;20.56;73.84
79415;BME280;68864;44.972;19.612;2023-08-30T03:36:08;99534.94;;;20.53;74.10
79415;BME280;68864;44.972;19.612;2023-08-30T03:38:35;99540.25;;;20.51;74.29
79415;BME280;68864;44.972;19.612;2023-08-30T03:41:02;99536.06;;;20.43;74.41
79415;BME280;68864;44.972;19.612;2023-08-30T03:43:32;99543.31;;;20.44;74.59
79415;BME280;68864;44.972;19.612;2023-08-30T03:46:00;99540.25;;;20.51;74.12
79415;BME280;68864;44.972;19.612;2023-08-30T03:48:29;99548.38;;;20.49;74.29
79415;BME280;68864;44.972;19.612;2023-08-30T03:50:56;99552.16;;;20.46;74.53
79415;BME280;68864;44.972;19.612;2023-08-30T03:53:22;99562.44;;;20.28;74.92
79415;BME280;68864;44.972;19.612;2023-08-30T03:55:49;99562.00;;;20.42;74.22
79415;BME280;68864;44.972;19.612;2023-08-30T03:58:17;99568.09;;;20.53;74.13
79415;BME280;68864;44.972;19.612;2023-08-30T04:00:45;99558.22;;;20.57;74.16
79415;BME280;68864;44.972;19.612;2023-08-30T04:03:13;99553.81;;;20.56;73.55
79415;BME280;68864;44.972;19.612;2023-08-30T04:05:41;99558.78;;;20.65;73.48
79415;BME280;68864;44.972;19.612;2023-08-30T04:08:08;99573.16;;;20.71;73.23
79415;BME280;68864;44.972;19.612;2023-08-30T04:10:35;99578.72;;;20.74;73.35
79415;BME280;68864;44.972;19.612;2023-08-30T04:13:02;99593.19;;;20.76;73.21
79415;BME280;68864;44.972;19.612;2023-08-30T04:15:32;99593.63;;;20.75;73.64
79415;BME280;68864;44.972;19.612;2023-08-30T04:18:00;99592.19;;;20.70;73.66
79415;BME280;68864;44.972;19.612;2023-08-30T04:20:27;99587.91;;;20.53;74.18
79415;BME280;68864;44.972;19.612;2023-08-30T04:22:54;99591.66;;;20.37;75.52
79415;BME280;68864;44.972;19.612;2023-08-30T04:25:22;99590.84;;;20.24;77.18
79415;BME280;68864;44.972;19.612;2023-08-30T04:27:49;99596.28;;;20.18;77.26
79415;BME280;68864;44.972;19.612;2023-08-30T04:30:16;99599.91;;;20.19;77.40
79415;BME280;68864;44.972;19.612;2023-08-30T04:32:43;99591.88;;;20.05;78.24
79415;BME280;68864;44.972;19.612;2023-08-30T04:35:11;99599.69;;;20.01;78.34
79415;BME280;68864;44.972;19.612;2023-08-30T04:37:38;99601.16;;;19.93;79.50
79415;BME280;68864;44.972;19.612;2023-08-30T04:40:06;99597.31;;;19.87;80.02
79415;BME280;68864;44.972;19.612;2023-08-30T04:42:34;99590.41;;;20.00;78.96
79415;BME280;68864;44.972;19.612;2023-08-30T04:47:28;99607.84;;;20.24;77.73
79415;BME280;68864;44.972;19.612;2023-08-30T04:49:55;99608.72;;;20.21;78.31
79415;BME280;68864;44.972;19.612;2023-08-30T04:52:23;99604.34;;;20.20;78.14
79415;BME280;68864;44.972;19.612;2023-08-30T04:54:50;99597.75;;;20.23;77.97
79415;BME280;68864;44.972;19.612;2023-08-30T04:57:17;99597.47;;;20.34;77.92
79415;BME280;68864;44.972;19.612;2023-08-30T04:59:44;99590.78;;;20.40;77.64
79415;BME280;68864;44.972;19.612;2023-08-30T05:02:12;99602.97;;;20.50;77.63
79415;BME280;68864;44.972;19.612;2023-08-30T05:04:39;99596.50;;;20.62;77.16
79415;BME280;68864;44.972;19.612;2023-08-30T05:07:06;99603.41;;;20.74;76.27
79415;BME280;68864;44.972;19.612;2023-08-30T05:09:34;99600.53;;;20.86;75.93
79415;BME280;68864;44.972;19.612;2023-08-30T05:12:01;99604.38;;;20.92;75.92
79415;BME280;68864;44.972;19.612;2023-08-30T05:14:28;99609.91;;;20.96;76.43
79415;BME280;68864;44.972;19.612;2023-08-30T05:16:55;99610.34;;;21.07;75.54
79415;BME280;68864;44.972;19.612;2023-08-30T05:19:21;99610.78;;;21.18;75.58
79415;BME280;68864;44.972;19.612;2023-08-30T05:21:48;99617.78;;;21.26;75.44
79415;BME280;68864;44.972;19.612;2023-08-30T05:24:16;99606.19;;;21.33;75.00
79415;BME280;68864;44.972;19.612;2023-08-30T05:26:45;99606.03;;;21.37;74.37
79415;BME280;68864;44.972;19.612;2023-08-30T05:29:12;99608.75;;;21.40;74.23
79415;BME280;68864;44.972;19.612;2023-08-30T05:31:39;99617.38;;;21.37;74.55
79415;BME280;68864;44.972;19.612;2023-08-30T05:34:05;99609.34;;;21.57;73.85
79415;BME280;68864;44.972;19.612;2023-08-30T05:36:32;99605.28;;;21.67;73.12
79415;BME280;68864;44.972;19.612;2023-08-30T05:38:59;99609.88;;;21.65;73.48
79415;BME280;68864;44.972;19.612;2023-08-30T05:41:26;99599.94;;;21.69;73.34
79415;BME280;68864;44.972;19.612;2023-08-30T05:43:54;99593.88;;;21.80;73.46
79415;BME280;68864;44.972;19.612;2023-08-30T05:46:21;99600.38;;;21.90;72.71
79415;BME280;68864;44.972;19.612;2023-08-30T05:48:47;99598.97;;;21.85;72.72
79415;BME280;68864;44.972;19.612;2023-08-30T05:51:14;99610.16;;;22.10;71.91
79415;BME280;68864;44.972;19.612;2023-08-30T05:53:41;99605.94;;;22.24;71.75
79415;BME280;68864;44.972;19.612;2023-08-30T05:56:07;99604.25;;;22.36;71.35
79415;BME280;68864;44.972;19.612;2023-08-30T05:58:34;99602.13;;;22.58;70.29
79415;BME280;68864;44.972;19.612;2023-08-30T06:01:03;99612.44;;;22.74;69.66
79415;BME280;68864;44.972;19.612;2023-08-30T06:03:31;99619.09;;;22.80;68.86
79415;BME280;68864;44.972;19.612;2023-08-30T06:05:58;99622.00;;;22.58;69.38
79415;BME280;68864;44.972;19.612;2023-08-30T06:08:26;99620.63;;;22.72;69.17
79415;BME280;68864;44.972;19.612;2023-08-30T06:10:52;99630.53;;;22.67;69.40
79415;BME280;68864;44.972;19.612;2023-08-30T06:13:19;99625.19;;;22.60;69.42
79415;BME280;68864;44.972;19.612;2023-08-30T06:15:50;99632.88;;;22.50;69.33
79415;BME280;68864;44.972;19.612;2023-08-30T06:18:19;99625.59;;;22.40;69.66
79415;BME280;68864;44.972;19.612;2023-08-30T06:20:45;99635.19;;;22.34;69.67
79415;BME280;68864;44.972;19.612;2023-08-30T06:23:13;99639.25;;;22.02;70.36
79415;BME280;68864;44.972;19.612;2023-08-30T06:25:39;99623.38;;;22.04;70.38
79415;BME280;68864;44.972;19.612;2023-08-30T06:28:06;99645.63;;;22.15;69.86
79415;BME280;68864;44.972;19.612;2023-08-30T06:30:33;99639.22;;;22.24;70.19
79415;BME280;68864;44.972;19.612;2023-08-30T06:33:00;99643.22;;;22.35;69.39
79415;BME280;68864;44.972;19.612;2023-08-30T06:35:28;99638.22;;;22.48;68.95
79415;BME280;68864;44.972;19.612;2023-08-30T06:37:54;99635.72;;;22.50;69.11
79415;BME280;68864;44.972;19.612;2023-08-30T06:40:22;99632.13;;;22.59;68.66
79415;BME280;68864;44.972;19.612;2023-08-30T06:42:48;99629.56;;;22.61;68.93
79415;BME280;68864;44.972;19.612;2023-08-30T06:45:15;99629.03;;;22.75;68.84
79415;BME280;68864;44.972;19.612;2023-08-30T06:47:42;99630.19;;;23.05;67.37
79415;BME280;68864;44.972;19.612;2023-08-30T06:50:09;99637.00;;;23.71;65.07
79415;BME280;68864;44.972;19.612;2023-08-30T06:52:37;99642.94;;;24.19;63.40
79415;BME280;68864;44.972;19.612;2023-08-30T06:55:05;99659.28;;;24.51;62.10
79415;BME280;68864;44.972;19.612;2023-08-30T06:57:31;99655.28;;;24.58;61.90
79415;BME280;68864;44.972;19.612;2023-08-30T06:59:58;99663.56;;;24.80;60.86
79415;BME280;68864;44.972;19.612;2023-08-30T07:02:33;99657.22;;;24.85;60.33
79415;BME280;68864;44.972;19.612;2023-08-30T07:05:00;99657.97;;;24.94;59.71
79415;BME280;68864;44.972;19.612;2023-08-30T07:07:26;99654.75;;;25.02;59.56
79415;BME280;68864;44.972;19.612;2023-08-30T07:09:55;99650.16;;;25.04;59.97
79415;BME280;68864;44.972;19.612;2023-08-30T07:12:21;99653.91;;;25.10;59.96
79415;BME280;68864;44.972;19.612;2023-08-30T07:14:48;99650.06;;;25.13;60.31
79415;BME280;68864;44.972;19.612;2023-08-30T07:17:15;99658.81;;;25.10;60.12
79415;BME280;68864;44.972;19.612;2023-08-30T07:19:42;99661.59;;;24.95;61.05
79415;BME280;68864;44.972;19.612;2023-08-30T07:22:09;99648.16;;;25.19;59.51
79415;BME280;68864;44.972;19.612;2023-08-30T07:24:35;99661.84;;;25.30;59.39
79415;BME280;68864;44.972;19.612;2023-08-30T07:27:04;99668.44;;;25.60;59.17
79415;BME280;68864;44.972;19.612;2023-08-30T07:29:31;99667.03;;;25.79;57.29
79415;BME280;68864;44.972;19.612;2023-08-30T07:31:57;99673.53;;;26.24;56.02
79415;BME280;68864;44.972;19.612;2023-08-30T07:34:24;99664.78;;;26.92;53.74
79415;BME280;68864;44.972;19.612;2023-08-30T07:36:54;99670.97;;;27.05;53.45
79415;BME280;68864;44.972;19.612;2023-08-30T07:39:21;99669.16;;;27.07;53.22
79415;BME280;68864;44.972;19.612;2023-08-30T07:41:47;99666.31;;;27.68;52.15
79415;BME280;68864;44.972;19.612;2023-08-30T07:44:15;99666.91;;;27.98;50.97
79415;BME280;68864;44.972;19.612;2023-08-30T07:46:42;99671.22;;;28.71;49.25
79415;BME280;68864;44.972;19.612;2023-08-30T07:49:09;99672.78;;;31.46;40.06
79415;BME280;68864;44.972;19.612;2023-08-30T07:51:36;99667.63;;;32.62;38.91
79415;BME280;68864;44.972;19.612;2023-08-30T07:54:02;99670.63;;;33.91;35.14
79415;BME280;68864;44.972;19.612;2023-08-30T07:56:29;99671.72;;;35.16;34.75
79415;BME280;68864;44.972;19.612;2023-08-30T07:58:56;99674.63;;;36.50;30.97
79415;BME280;68864;44.972;19.612;2023-08-30T08:01:24;99662.56;;;38.39;28.49
79415;BME280;68864;44.972;19.612;2023-08-30T08:03:51;99668.41;;;39.38;27.59
79415;BME280;68864;44.972;19.612;2023-08-30T08:06:18;99677.50;;;40.69;24.50
79415;BME280;68864;44.972;19.612;2023-08-30T08:08:45;99666.03;;;42.53;22.52
79415;BME280;68864;44.972;19.612;2023-08-30T08:11:11;99671.91;;;45.15;19.17
79415;BME280;68864;44.972;19.612;2023-08-30T08:13:38;99661.84;;;45.18;18.90
79415;BME280;68864;44.972;19.612;2023-08-30T08:16:05;99650.13;;;41.41;22.75
79415;BME280;68864;44.972;19.612;2023-08-30T08:18:33;99661.88;;;43.02;20.18
79415;BME280;68864;44.972;19.612;2023-08-30T08:21:00;99663.66;;;46.32;17.20
79415;BME280;68864;44.972;19.612;2023-08-30T08:23:27;99655.81;;;47.29;16.18
79415;BME280;68864;44.972;19.612;2023-08-30T08:25:57;99657.19;;;43.55;19.24
79415;BME280;68864;44.972;19.612;2023-08-30T08:28:24;99673.75;;;42.04;21.19
79415;BME280;68864;44.972;19.612;2023-08-30T08:30:51;99670.13;;;43.13;19.66
79415;BME280;68864;44.972;19.612;2023-08-30T08:33:17;99664.75;;;41.93;21.14
79415;BME280;68864;44.972;19.612;2023-08-30T08:35:47;99666.47;;;44.59;17.78
79415;BME280;68864;44.972;19.612;2023-08-30T08:38:14;99672.53;;;45.99;16.76
79415;BME280;68864;44.972;19.612;2023-08-30T08:40:41;99668.34;;;43.66;19.71
79415;BME280;68864;44.972;19.612;2023-08-30T08:43:10;99672.13;;;41.25;23.08
79415;BME280;68864;44.972;19.612;2023-08-30T08:45:36;99675.56;;;40.39;23.28
79415;BME280;68864;44.972;19.612;2023-08-30T08:48:04;99665.47;;;39.38;24.31
79415;BME280;68864;44.972;19.612;2023-08-30T08:50:31;99666.22;;;38.24;25.16
79415;BME280;68864;44.972;19.612;2023-08-30T08:53:01;99657.91;;;37.41;26.54
79415;BME280;68864;44.972;19.612;2023-08-30T08:55:29;99668.03;;;36.49;30.16
79415;BME280;68864;44.972;19.612;2023-08-30T08:57:57;99673.84;;;35.81;30.70
79415;BME280;68864;44.972;19.612;2023-08-30T09:00:24;99666.41;;;35.33;30.89
79415;BME280;68864;44.972;19.612;2023-08-30T09:02:53;99667.13;;;34.49;31.17
79415;BME280;68864;44.972;19.612;2023-08-30T09:05:19;99653.09;;;33.65;32.86
79415;BME280;68864;44.972;19.612;2023-08-30T09:07:47;99656.84;;;32.68;34.38
79415;BME280;68864;44.972;19.612;2023-08-30T09:10:15;99654.75;;;32.33;33.88
79415;BME280;68864;44.972;19.612;2023-08-30T09:12:42;99660.34;;;31.79;34.29
79415;BME280;68864;44.972;19.612;2023-08-30T09:15:09;99657.59;;;31.46;34.65
79415;BME280;68864;44.972;19.612;2023-08-30T09:17:36;99660.81;;;31.31;35.49
79415;BME280;68864;44.972;19.612;2023-08-30T09:20:08;99661.09;;;31.22;35.36
79415;BME280;68864;44.972;19.612;2023-08-30T09:22:39;99657.44;;;31.22;36.39
79415;BME280;68864;44.972;19.612;2023-08-30T09:25:08;99658.69;;;31.32;35.88
79415;BME280;68864;44.972;19.612;2023-08-30T09:27:36;99647.28;;;32.14;33.92
79415;BME280;68864;44.972;19.612;2023-08-30T09:30:07;99647.50;;;32.51;34.45
79415;BME280;68864;44.972;19.612;2023-08-30T09:32:40;99649.72;;;32.40;32.92
79415;BME280;68864;44.972;19.612;2023-08-30T09:35:08;99645.31;;;32.33;32.63
79415;BME280;68864;44.972;19.612;2023-08-30T09:37:35;99642.16;;;32.37;33.72
79415;BME280;68864;44.972;19.612;2023-08-30T09:40:03;99632.06;;;32.49;33.79
79415;BME280;68864;44.972;19.612;2023-08-30T09:42:31;99635.44;;;32.53;33.83
79415;BME280;68864;44.972;19.612;2023-08-30T09:44:59;99634.78;;;32.65;33.72
79415;BME280;68864;44.972;19.612;2023-08-30T09:47:26;99625.34;;;32.70;34.74
79415;BME280;68864;44.972;19.612;2023-08-30T09:49:55;99626.88;;;32.71;34.76
79415;BME280;68864;44.972;19.612;2023-08-30T09:52:24;99625.47;;;32.54;33.93
79415;BME280;68864;44.972;19.612;2023-08-30T09:54:51;99624.09;;;32.30;33.75
79415;BME280;68864;44.972;19.612;2023-08-30T09:57:19;99627.06;;;32.19;34.64
79415;BME280;68864;44.972;19.612;2023-08-30T09:59:48;99628.16;;;32.16;35.92
79415;BME280;68864;44.972;19.612;2023-08-30T10:02:17;99614.28;;;32.09;35.31
79415;BME280;68864;44.972;19.612;2023-08-30T10:04:45;99626.00;;;32.22;36.01
79415;BME280;68864;44.972;19.612;2023-08-30T10:07:13;99617.59;;;32.24;36.53
79415;BME280;68864;44.972;19.612;2023-08-30T10:09:41;99622.63;;;32.18;35.85
79415;BME280;68864;44.972;19.612;2023-08-30T10:12:10;99618.22;;;32.06;35.56
79415;BME280;68864;44.972;19.612;2023-08-30T10:14:36;99624.03;;;32.01;36.49
79415;BME280;68864;44.972;19.612;2023-08-30T10:17:05;99617.06;;;31.90;35.48
79415;BME280;68864;44.972;19.612;2023-08-30T10:19:37;99604.03;;;31.73;37.41
79415;BME280;68864;44.972;19.612;2023-08-30T10:22:05;99612.47;;;31.71;36.44
79415;BME280;68864;44.972;19.612;2023-08-30T10:24:37;99604.59;;;31.71;35.49
79415;BME280;68864;44.972;19.612;2023-08-30T10:27:07;99605.41;;;31.66;36.27
79415;BME280;68864;44.972;19.612;2023-08-30T10:29:35;99604.56;;;31.77;35.94
79415;BME280;68864;44.972;19.612;2023-08-30T10:32:03;99600.59;;;31.80;35.85
79415;BME280;68864;44.972;19.612;2023-08-30T10:34:32;99605.13;;;31.70;34.64
79415;BME280;68864;44.972;19.612;2023-08-30T10:37:02;99596.81;;;31.55;34.91
79415;BME280;68864;44.972;19.612;2023-08-30T10:39:33;99613.81;;;31.53;34.75
79415;BME280;68864;44.972;19.612;2023-08-30T10:42:08;99612.81;;;31.45;35.00
79415;BME280;68864;44.972;19.612;2023-08-30T10:44:45;99561.69;;;31.10;34.28
79415;BME280;68864;44.972;19.612;2023-08-30T10:47:18;99601.88;;;31.32;34.74
79415;BME280;68864;44.972;19.612;2023-08-30T10:49:46;99586.81;;;31.09;34.40
79415;BME280;68864;44.972;19.612;2023-08-30T10:52:15;99599.91;;;31.10;35.36
79415;BME280;68864;44.972;19.612;2023-08-30T10:54:41;99604.09;;;30.98;34.79
79415;BME280;68864;44.972;19.612;2023-08-30T10:57:19;99601.00;;;30.79;34.56
79415;BME280;68864;44.972;19.612;2023-08-30T11:00:06;99598.44;;;30.65;33.84
79415;BME280;68864;44.972;19.612;2023-08-30T11:02:34;99603.66;;;30.66;34.07
79415;BME280;68864;44.972;19.612;2023-08-30T11:05:02;99606.28;;;30.70;33.02
79415;BME280;68864;44.972;19.612;2023-08-30T11:07:31;99607.84;;;30.71;33.86
79415;BME280;68864;44.972;19.612;2023-08-30T11:09:58;99600.19;;;30.96;33.11
79415;BME280;68864;44.972;19.612;2023-08-30T11:12:25;99610.28;;;31.30;32.31
79415;BME280;68864;44.972;19.612;2023-08-30T11:14:54;99605.25;;;31.42;32.99
79415;BME280;68864;44.972;19.612;2023-08-30T11:17:21;99593.13;;;31.54;32.39
79415;BME280;68864;44.972;19.612;2023-08-30T11:19:50;99602.47;;;31.72;32.23
79415;BME280;68864;44.972;19.612;2023-08-30T11:22:18;99600.59;;;31.80;33.05
79415;BME280;68864;44.972;19.612;2023-08-30T11:24:48;99604.78;;;31.84;33.74
79415;BME280;68864;44.972;19.612;2023-08-30T11:27:16;99603.44;;;31.85;32.56
79415;BME280;68864;44.972;19.612;2023-08-30T11:29:43;99598.50;;;31.80;33.32
79415;BME280;68864;44.972;19.612;2023-08-30T11:32:10;99596.97;;;31.74;34.38
79415;BME280;68864;44.972;19.612;2023-08-30T11:34:37;99598.38;;;31.62;33.87
79415;BME280;68864;44.972;19.612;2023-08-30T11:37:04;99598.59;;;31.58;33.78
79415;BME280;68864;44.972;19.612;2023-08-30T11:39:31;99598.22;;;31.37;35.10
79415;BME280;68864;44.972;19.612;2023-08-30T11:41:59;99600.59;;;31.28;35.21
79415;BME280;68864;44.972;19.612;2023-08-30T11:44:28;99591.72;;;31.20;34.50
79415;BME280;68864;44.972;19.612;2023-08-30T11:46:58;99589.16;;;31.00;34.53
79415;BME280;68864;44.972;19.612;2023-08-30T11:49:26;99600.22;;;30.85;35.65
79415;BME280;68864;44.972;19.612;2023-08-30T11:51:54;99590.25;;;30.86;35.24
79415;BME280;68864;44.972;19.612;2023-08-30T11:54:22;99584.28;;;30.84;36.46
79415;BME280;68864;44.972;19.612;2023-08-30T11:56:50;99573.81;;;30.80;35.59
79415;BME280;68864;44.972;19.612;2023-08-30T11:59:21;99569.63;;;30.82;34.89
79415;BME280;68864;44.972;19.612;2023-08-30T12:01:48;99551.06;;;30.77;35.39
79415;BME280;68864;44.972;19.612;2023-08-30T12:04:15;99563.06;;;30.87;34.89
79415;BME280;68864;44.972;19.612;2023-08-30T12:06:44;99564.38;;;30.91;34.89
79415;BME280;68864;44.972;19.612;2023-08-30T12:09:14;99557.03;;;30.90;34.18
79415;BME280;68864;44.972;19.612;2023-08-30T12:11:41;99559.41;;;30.80;34.36
79415;BME280;68864;44.972;19.612;2023-08-30T12:14:07;99556.59;;;30.69;35.36
79415;BME280;68864;44.972;19.612;2023-08-30T12:16:35;99555.78;;;30.74;35.11
79415;BME280;68864;44.972;19.612;2023-08-30T12:19:09;99554.19;;;30.73;34.19
79415;BME280;68864;44.972;19.612;2023-08-30T12:21:40;99548.47;;;30.68;35.36
79415;BME280;68864;44.972;19.612;2023-08-30T12:24:07;99558.94;;;30.65;35.26
79415;BME280;68864;44.972;19.612;2023-08-30T12:26:34;99563.38;;;30.77;34.00
79415;BME280;68864;44.972;19.612;2023-08-30T12:29:02;99558.63;;;30.80;35.46
79415;BME280;68864;44.972;19.612;2023-08-30T12:31:29;99564.91;;;30.84;36.92
79415;BME280;68864;44.972;19.612;2023-08-30T12:33:58;99561.03;;;30.65;38.96
79415;BME280;68864;44.972;19.612;2023-08-30T12:36:25;99562.06;;;30.45;38.88
79415;BME280;68864;44.972;19.612;2023-08-30T12:38:51;99573.09;;;30.13;39.66
79415;BME280;68864;44.972;19.612;2023-08-30T12:41:18;99565.22;;;29.80;40.05
79415;BME280;68864;44.972;19.612;2023-08-30T12:43:47;99575.06;;;29.46;40.97
79415;BME280;68864;44.972;19.612;2023-08-30T12:46:13;99580.47;;;29.21;41.60
79415;BME280;68864;44.972;19.612;2023-08-30T12:48:40;99577.50;;;28.99;41.78
79415;BME280;68864;44.972;19.612;2023-08-30T12:51:09;99566.44;;;28.75;42.27
79415;BME280;68864;44.972;19.612;2023-08-30T12:53:35;99583.78;;;28.61;40.68
79415;BME280;68864;44.972;19.612;2023-08-30T12:56:02;99580.97;;;28.29;40.54